createdAt,value
2022-08-14T21:59:32.655Z,20.76
2022-08-14T22:00:36.397Z,20.73
2022-08-14T22:02:01.164Z,20.73
2022-08-14T22:02:33.721Z,20.72
2022-08-14T22:03:35.517Z,20.72
2022-08-14T22:04:34.576Z,20.70
2022-08-14T22:05:33.575Z,20.66
2022-08-14T22:06:32.556Z,20.62
2022-08-14T22:07:32.524Z,20.64
2022-08-14T22:08:32.522Z,20.69
2022-08-14T22:09:36.768Z,20.72
2022-08-14T22:10:32.528Z,20.73
2022-08-14T22:11:32.499Z,20.74
2022-08-14T22:12:45.387Z,20.72
2022-08-14T22:13:33.437Z,20.70
2022-08-14T22:14:33.455Z,20.67
2022-08-14T22:15:33.449Z,20.64
2022-08-14T22:17:00.215Z,20.61
2022-08-14T22:17:34.217Z,20.61
2022-08-14T22:18:32.369Z,20.58
2022-08-14T22:19:43.452Z,20.57
2022-08-14T22:20:33.372Z,20.52
2022-08-14T22:21:32.351Z,20.51
2022-08-14T22:22:32.344Z,20.48
2022-08-14T22:23:32.342Z,20.43
2022-08-14T22:24:38.667Z,20.38
2022-08-14T22:25:34.511Z,20.39
2022-08-14T22:26:33.264Z,20.39
2022-08-14T22:27:32.662Z,20.39
2022-08-14T22:28:32.729Z,20.35
2022-08-14T22:29:32.209Z,20.38
2022-08-14T22:30:32.203Z,20.36
2022-08-14T22:31:34.999Z,20.36
2022-08-14T22:32:56.681Z,20.36
2022-08-14T22:33:33.186Z,20.35
2022-08-14T22:34:32.155Z,20.36
2022-08-14T22:35:32.125Z,20.38
2022-08-14T22:36:33.781Z,20.42
2022-08-14T22:37:33.108Z,20.42
2022-08-14T22:38:37.167Z,20.42
2022-08-14T22:40:54.605Z,20.41
2022-08-14T22:41:01.907Z,20.42
2022-08-14T22:41:42.442Z,20.47
2022-08-14T22:42:35.294Z,20.47
2022-08-14T22:43:32.069Z,20.50
2022-08-14T22:44:32.026Z,20.47
2022-08-14T22:45:36.335Z,20.50
2022-08-14T22:46:33.036Z,20.41
2022-08-14T22:47:40.551Z,20.35
2022-08-14T22:48:32.988Z,20.31
2022-08-14T22:50:32.291Z,20.28
2022-08-14T22:50:33.841Z,20.28
2022-08-14T22:51:31.926Z,20.28
2022-08-14T22:52:33.713Z,20.26
2022-08-14T22:53:32.937Z,20.24
2022-08-14T22:54:52.367Z,20.28
2022-08-14T22:55:36.582Z,20.28
2022-08-14T22:56:31.840Z,20.28
2022-08-14T22:57:37.118Z,20.28
2022-08-14T22:58:34.943Z,20.28
2022-08-14T22:59:36.890Z,20.29
2022-08-14T23:00:32.831Z,20.26
2022-08-14T23:01:55.433Z,20.23
2022-08-14T23:02:32.772Z,20.24
2022-08-14T23:03:34.857Z,20.26
2022-08-14T23:04:34.795Z,20.28
2022-08-14T23:07:03.304Z,20.28
2022-08-14T23:08:56.431Z,20.24
2022-08-14T23:09:01.829Z,20.23
2022-08-14T23:09:46.777Z,20.23
2022-08-14T23:10:46.781Z,20.23
2022-08-14T23:11:45.744Z,20.24
2022-08-14T23:12:45.917Z,20.23
2022-08-14T23:13:46.719Z,20.23
2022-08-14T23:14:45.718Z,20.26
2022-08-14T23:15:45.682Z,20.23
2022-08-14T23:16:45.677Z,20.21
2022-08-14T23:17:45.663Z,20.18
2022-08-14T23:18:45.663Z,20.18
2022-08-14T23:19:45.637Z,20.17
2022-08-14T23:20:45.646Z,20.18
2022-08-14T23:21:46.311Z,20.21
2022-08-14T23:22:45.823Z,20.17
2022-08-14T23:23:45.615Z,20.18
2022-08-14T23:24:45.592Z,20.18
2022-08-14T23:25:59.656Z,20.14
2022-08-14T23:26:49.920Z,20.14
2022-08-14T23:28:02.562Z,20.13
2022-08-14T23:28:57.268Z,20.11
2022-08-14T23:29:46.557Z,20.11
2022-08-14T23:30:49.041Z,20.08
2022-08-14T23:31:45.468Z,20.05
2022-08-14T23:32:45.571Z,20.03
2022-08-14T23:33:51.832Z,20.05
2022-08-14T23:34:48.102Z,20.02
2022-08-14T23:35:59.078Z,20.01
2022-08-14T23:36:54.171Z,20.02
2022-08-14T23:37:46.390Z,20.08
2022-08-14T23:38:45.391Z,20.08
2022-08-14T23:39:45.423Z,20.10
2022-08-14T23:40:45.360Z,20.06
2022-08-14T23:41:46.203Z,20.06
2022-08-14T23:42:46.322Z,20.03
2022-08-14T23:43:45.303Z,20.01
2022-08-14T23:44:45.910Z,19.98
2022-08-14T23:45:54.067Z,19.98
2022-08-14T23:46:45.376Z,19.96
2022-08-14T23:47:52.084Z,19.98
2022-08-14T23:48:46.575Z,19.94
2022-08-14T23:49:56.897Z,19.95
2022-08-14T23:50:46.221Z,19.95
2022-08-14T23:51:45.251Z,19.94
2022-08-14T23:52:50.916Z,19.96
2022-08-14T23:53:48.481Z,19.94
2022-08-14T23:54:48.846Z,19.96
2022-08-14T23:55:45.150Z,19.94
2022-08-14T23:56:46.196Z,19.92
2022-08-14T23:57:57.969Z,19.92
2022-08-14T23:58:49.144Z,19.92
2022-08-14T23:59:54.761Z,19.92
